Time;durP1;ratioP1;P1;durP2;ratioP2;P2;SDS_P1;SDS_P2;PMS_P1;PMS_P2;Temp;Humidity;BMP_temperature;BMP_pressure;BME280_temperature;BME280_humidity;BME280_pressure;Samples;Min_cycle;Max_cycle;Signal;HPM_P1;HPM_P2
2022/05/09 00:02:10;;;;;;;11.40;7.57;;;;;;;15.49;77.07;100906.69;5133046;27;20019;-72
2022/05/09 00:04:37;;;;;;;9.65;6.93;;;;;;;15.45;77.15;100910.69;5133194;27;20497;-73
2022/05/09 00:07:03;;;;;;;8.68;7.25;;;;;;;15.41;76.92;100920.09;5132708;27;20042;-72
2022/05/09 00:09:29;;;;;;;11.60;8.10;;;;;;;15.36;77.72;100908.91;5132658;27;20034;-72
2022/05/09 00:11:54;;;;;;;8.45;7.03;;;;;;;15.34;77.98;100910.88;5132554;27;20019;-72
2022/05/09 00:14:20;;;;;;;9.27;7.05;;;;;;;15.31;78.37;100913.00;5132524;27;20475;-71
2022/05/09 00:16:46;;;;;;;8.52;7.25;;;;;;;15.28;78.58;100913.31;5132928;27;20062;-72
2022/05/09 00:19:13;;;;;;;8.90;6.78;;;;;;;15.24;78.55;100906.50;5131350;27;20550;-72
2022/05/09 00:21:41;;;;;;;7.55;6.80;;;;;;;15.19;78.94;100906.13;5131333;27;20023;-72
2022/05/09 00:24:13;;;;;;;10.85;7.65;;;;;;;15.10;79.17;100907.00;5132178;27;20068;-72
2022/05/09 00:26:39;;;;;;;10.15;7.07;;;;;;;15.15;80.02;100920.91;5131169;27;20076;-72
2022/05/09 00:29:06;;;;;;;8.52;7.63;;;;;;;15.13;80.80;100920.22;5130918;27;20440;-71
2022/05/09 00:31:32;;;;;;;8.75;7.85;;;;;;;15.01;80.63;100914.16;5131221;27;20386;-72
2022/05/09 00:33:58;;;;;;;11.98;7.95;;;;;;;14.99;81.08;100913.44;5132299;27;20109;-71
2022/05/09 00:36:23;;;;;;;10.57;7.78;;;;;;;14.97;80.82;100912.75;5131915;27;20030;-65
2022/05/09 00:38:52;;;;;;;11.10;8.07;;;;;;;14.99;80.65;100926.13;5130717;27;20152;-65
2022/05/09 00:44:20;;;;;;;9.40;7.57;;;;;;;14.88;80.62;100923.59;5105059;27;20062;-66
2022/05/09 00:46:48;;;;;;;10.25;7.95;;;;;;;14.75;80.92;100905.03;5131988;27;20066;-65
2022/05/09 00:49:45;;;;;;;9.27;7.55;;;;;;;14.77;81.16;100919.22;5131909;27;20041;-65
2022/05/09 00:52:55;;;;;;;10.52;7.60;;;;;;;14.73;81.21;100920.50;5129291;27;20452;-64
2022/05/09 00:55:26;;;;;;;10.45;7.35;;;;;;;14.70;80.97;100923.50;5089575;27;20467;-65
2022/05/09 00:57:57;;;;;;;11.00;7.97;;;;;;;14.66;81.46;100924.78;5130380;27;20026;-65
2022/05/09 01:00:24;;;;;;;10.30;7.60;;;;;;;14.63;81.66;100921.53;5130696;27;20042;-66
2022/05/09 01:02:59;;;;;;;9.95;7.80;;;;;;;14.55;81.65;100916.00;5131549;27;20087;-65
2022/05/09 01:05:28;;;;;;;14.95;8.20;;;;;;;14.57;82.29;100933.75;5131256;27;20018;-64
2022/05/09 01:07:54;;;;;;;11.25;8.23;;;;;;;14.48;82.53;100914.91;5131544;27;20030;-65
2022/05/09 01:10:24;;;;;;;8.43;7.18;;;;;;;14.51;82.69;100923.53;5131502;27;20079;-66
2022/05/09 01:12:51;;;;;;;10.13;7.95;;;;;;;14.47;82.61;100922.13;5130636;27;20467;-66
2022/05/09 01:15:17;;;;;;;10.13;7.72;;;;;;;14.41;82.67;100911.91;5131443;27;20064;-64
2022/05/09 01:17:47;;;;;;;13.93;7.90;;;;;;;14.40;82.97;100929.09;5130340;27;20043;-65
2022/05/09 01:20:13;;;;;;;10.32;8.43;;;;;;;14.32;82.80;100914.63;5129402;27;20072;-66
2022/05/09 01:22:40;;;;;;;12.65;7.82;;;;;;;14.32;82.80;100922.72;5131516;27;20697;-65
2022/05/09 01:25:10;;;;;;;11.45;8.60;;;;;;;14.33;82.96;100933.38;5131371;27;20026;-65
2022/05/09 01:27:40;;;;;;;10.35;8.25;;;;;;;14.30;83.36;100924.72;5131171;27;20023;-65
2022/05/09 01:30:09;;;;;;;10.93;8.38;;;;;;;14.28;82.92;100924.03;5131371;27;20100;-65
2022/05/09 01:32:53;;;;;;;13.45;8.20;;;;;;;14.25;83.28;100922.44;5131237;27;20083;-66
2022/05/09 01:35:28;;;;;;;10.35;8.77;;;;;;;14.25;83.61;100927.00;5131215;27;20034;-65
2022/05/09 01:38:04;;;;;;;10.70;8.00;;;;;;;14.20;83.83;100924.69;5131246;27;20609;-64
2022/05/09 01:40:30;;;;;;;16.15;8.15;;;;;;;14.07;84.19;100902.56;5131085;27;20098;-66
2022/05/09 01:42:55;;;;;;;9.48;7.45;;;;;;;14.12;84.23;100916.44;5129961;28;20444;-65
2022/05/09 01:45:21;;;;;;;11.00;7.75;;;;;;;14.15;84.18;100931.53;5131426;27;20498;-66
2022/05/09 01:50:30;;;;;;;12.80;8.65;;;;;;;14.04;84.51;100910.94;5130786;27;20049;-65
2022/05/09 01:52:56;;;;;;;9.77;8.00;;;;;;;14.07;84.29;100918.75;5131032;27;20035;-65
2022/05/09 01:55:22;;;;;;;8.88;7.80;;;;;;;14.04;84.52;100926.25;5131028;27;20043;-66
2022/05/09 01:57:49;;;;;;;13.15;8.15;;;;;;;13.97;84.67;100911.63;5130839;27;20518;-65
2022/05/09 02:00:16;;;;;;;9.73;7.72;;;;;;;14.00;84.73;100923.00;5131141;27;20391;-66
2022/05/09 02:02:42;;;;;;;10.18;8.10;;;;;;;13.99;85.23;100928.53;5131268;27;20112;-65
2022/05/09 02:05:07;;;;;;;10.73;7.80;;;;;;;13.90;84.79;100914.06;5131044;27;20027;-65
2022/05/09 02:07:34;;;;;;;10.90;8.07;;;;;;;13.91;85.13;100914.91;5131034;27;20027;-65
2022/05/09 02:09:59;;;;;;;9.30;7.40;;;;;;;13.94;85.26;100928.97;5130784;27;20409;-65
2022/05/09 02:12:25;;;;;;;14.50;8.48;;;;;;;13.92;85.08;100925.53;5130737;27;20019;-65
2022/05/09 02:14:50;;;;;;;11.35;8.15;;;;;;;13.91;84.75;100925.69;5130822;27;20114;-66
2022/05/09 02:17:16;;;;;;;9.65;8.23;;;;;;;13.92;84.52;100932.75;5132527;27;20023;-66
2022/05/09 02:19:43;;;;;;;13.20;8.27;;;;;;;13.89;84.42;100933.91;5135096;27;20080;-64
2022/05/09 02:22:09;;;;;;;10.45;9.10;;;;;;;13.79;84.82;100919.56;5134465;27;20023;-65
2022/05/09 02:24:35;;;;;;;11.00;8.60;;;;;;;13.90;84.34;100937.47;5134765;27;20367;-65
2022/05/09 02:27:01;;;;;;;15.38;8.80;;;;;;;13.89;85.09;100942.00;5134638;27;20026;-65
2022/05/09 02:29:27;;;;;;;11.75;8.50;;;;;;;13.89;85.04;100944.69;5134410;27;20038;-65
2022/05/09 02:31:55;;;;;;;14.68;8.88;;;;;;;13.89;84.94;100944.69;5134663;27;20027;-66
2022/05/09 02:34:21;;;;;;;10.52;8.38;;;;;;;13.83;84.61;100915.59;5134203;27;20019;-66
2022/05/09 02:36:46;;;;;;;11.70;8.50;;;;;;;13.90;85.31;100934.78;5134415;27;20440;-65
2022/05/09 02:39:12;;;;;;;10.23;8.68;;;;;;;13.96;84.93;100929.66;5134311;27;20027;-65
2022/05/09 02:41:37;;;;;;;9.05;8.15;;;;;;;14.07;85.39;100939.47;5134417;27;20039;-71
2022/05/09 02:44:03;;;;;;;10.10;7.25;;;;;;;14.11;85.56;100941.72;5134268;27;20029;-71
2022/05/09 02:46:29;;;;;;;10.43;7.78;;;;;;;14.16;84.84;100939.47;5134367;27;20059;-71
2022/05/09 02:48:59;;;;;;;10.63;7.72;;;;;;;14.20;84.51;100934.63;5134423;27;20031;-71
2022/05/09 02:51:26;;;;;;;8.27;7.47;;;;;;;14.33;84.24;100944.19;5134107;27;20047;-71
2022/05/09 02:53:51;;;;;;;15.18;7.97;;;;;;;14.33;83.92;100938.78;5134255;27;20486;-71
2022/05/09 02:56:17;;;;;;;10.60;8.45;;;;;;;14.35;83.66;100939.47;5134232;27;20038;-71
2022/05/09 02:58:42;;;;;;;10.60;7.22;;;;;;;14.44;83.25;100949.41;5132519;27;20027;-72
2022/05/09 03:01:08;;;;;;;8.88;7.38;;;;;;;14.53;82.88;100953.09;5132253;27;20030;-72
2022/05/09 03:06:17;;;;;;;10.27;7.85;;;;;;;14.56;82.72;100948.25;5132331;27;20034;-72
2022/05/09 03:08:44;;;;;;;9.98;7.65;;;;;;;14.59;82.55;100958.78;5132937;27;20134;-72
2022/05/09 03:11:10;;;;;;;14.55;7.80;;;;;;;14.64;82.15;100955.66;5131947;27;20027;-70
2022/05/09 03:13:36;;;;;;;11.13;7.97;;;;;;;14.62;81.93;100953.09;5133181;27;20109;-72
2022/05/09 03:16:02;;;;;;;11.30;7.32;;;;;;;14.69;81.89;100959.59;5133551;27;20035;-72
2022/05/09 03:18:28;;;;;;;12.25;7.18;;;;;;;14.71;81.99;100965.72;5132925;27;20023;-72
2022/05/09 03:20:53;;;;;;;8.65;7.63;;;;;;;14.74;81.99;100954.59;5132827;27;20038;-72
2022/05/09 03:23:19;;;;;;;9.23;7.50;;;;;;;14.78;81.43;100961.44;5131620;27;20034;-72
2022/05/09 03:25:45;;;;;;;8.88;7.40;;;;;;;14.79;81.52;100965.84;5132762;27;20475;-71
2022/05/09 03:28:13;;;;;;;11.52;7.55;;;;;;;14.82;81.39;100968.25;5132365;27;20034;-72
2022/05/09 03:30:40;;;;;;;11.07;8.27;;;;;;;14.87;80.82;100965.09;5132321;27;20038;-72
2022/05/09 03:33:06;;;;;;;9.45;7.45;;;;;;;14.85;80.88;100959.00;5132871;27;20023;-70
2022/05/09 03:35:32;;;;;;;9.63;7.35;;;;;;;14.91;80.69;100970.06;5131901;27;20054;-72
2022/05/09 03:37:58;;;;;;;8.95;6.93;;;;;;;14.93;80.32;100968.06;5131194;27;20027;-72
2022/05/09 03:40:23;;;;;;;10.20;7.95;;;;;;;14.96;80.32;100975.03;5131478;27;20080;-71
2022/05/09 03:42:49;;;;;;;9.40;7.32;;;;;;;14.96;79.93;100970.47;5131991;27;20083;-72
2022/05/09 03:45:15;;;;;;;11.43;8.05;;;;;;;14.97;80.20;100977.59;5131500;27;20126;-72
2022/05/09 03:47:42;;;;;;;8.50;7.20;;;;;;;14.97;80.21;100974.03;5132270;27;20577;-71
2022/05/09 03:50:09;;;;;;;11.23;7.78;;;;;;;15.00;80.33;100977.28;5131094;27;20070;-71
2022/05/09 03:52:35;;;;;;;11.02;7.60;;;;;;;14.94;80.29;100968.94;5132097;27;20038;-72
2022/05/09 03:55:01;;;;;;;11.68;7.40;;;;;;;15.02;80.26;100982.53;5131587;27;20031;-72
2022/05/09 03:57:26;;;;;;;9.65;7.82;;;;;;;14.90;80.12;100976.47;5132766;27;20337;-71
2022/05/09 03:59:52;;;;;;;8.90;7.28;;;;;;;15.05;80.31;100985.81;5132695;27;20039;-66
2022/05/09 04:02:17;;;;;;;13.98;7.20;;;;;;;15.09;80.28;100989.09;5130999;27;20027;-65
2022/05/09 04:04:43;;;;;;;13.32;7.15;;;;;;;15.12;80.38;100983.38;5132357;27;20027;-66
2022/05/09 04:07:09;;;;;;;12.68;7.68;;;;;;;15.17;80.47;100989.19;5130802;27;20034;-65
2022/05/09 04:09:34;;;;;;;10.75;6.97;;;;;;;15.21;80.31;100988.75;5132019;27;20022;-65
2022/05/09 04:12:00;;;;;;;11.13;7.35;;;;;;;15.26;80.01;100985.59;5132348;27;20046;-65
2022/05/09 04:17:10;;;;;;;11.45;8.15;;;;;;;15.39;79.74;100989.72;5132222;27;20074;-65
2022/05/09 04:19:37;;;;;;;9.75;7.10;;;;;;;15.49;79.27;100993.22;5132160;27;20394;-65
2022/05/09 04:22:03;;;;;;;9.35;7.10;;;;;;;15.51;78.71;100984.97;5129283;27;20035;-65
2022/05/09 04:24:30;;;;;;;9.38;7.32;;;;;;;15.59;78.13;100976.94;5131618;27;20042;-65
2022/05/09 04:26:56;;;;;;;13.05;7.03;;;;;;;15.80;77.75;101000.00;5132029;27;20035;-66
2022/05/09 04:29:22;;;;;;;9.00;6.90;;;;;;;15.90;76.75;101002.66;5130449;27;20035;-65
2022/05/09 04:31:47;;;;;;;11.20;7.10;;;;;;;16.00;75.94;100997.19;5131092;27;20054;-66
2022/05/09 04:34:13;;;;;;;8.00;6.63;;;;;;;16.11;75.69;101002.34;5131584;27;20038;-66
2022/05/09 04:36:39;;;;;;;10.93;6.75;;;;;;;16.22;74.96;101002.97;5131176;27;20066;-65
2022/05/09 04:39:05;;;;;;;10.30;7.15;;;;;;;16.33;74.62;101010.03;5129936;27;20023;-72
2022/05/09 04:41:32;;;;;;;12.05;6.53;;;;;;;16.40;74.18;100997.56;5131310;27;20027;-71
2022/05/09 04:43:59;;;;;;;6.95;6.00;;;;;;;16.52;73.52;100990.97;5131991;27;20026;-71
2022/05/09 04:46:25;;;;;;;9.95;6.82;;;;;;;16.67;73.09;101003.78;5132109;27;20075;-72
2022/05/09 04:48:50;;;;;;;7.63;6.80;;;;;;;16.81;72.04;101011.34;5131984;27;20039;-71
2022/05/09 04:51:16;;;;;;;10.35;6.68;;;;;;;16.91;71.50;101008.53;5131645;27;20530;-71
2022/05/09 04:53:42;;;;;;;12.27;6.20;;;;;;;16.97;71.08;101006.06;5130594;27;20103;-72
2022/05/09 04:56:07;;;;;;;8.90;6.35;;;;;;;17.11;70.61;101008.19;5131910;27;20031;-66
2022/05/09 04:58:33;;;;;;;9.70;6.13;;;;;;;17.16;69.77;100994.97;5131636;27;20038;-65
2022/05/09 05:00:59;;;;;;;11.32;6.47;;;;;;;17.37;69.29;101013.56;5131229;27;20145;-66
2022/05/09 05:03:25;;;;;;;11.82;6.22;;;;;;;17.51;68.71;101018.44;5131456;27;20467;-66
2022/05/09 05:05:54;;;;;;;15.43;6.88;;;;;;;17.67;68.38;101013.94;5131586;27;20049;-65
2022/05/09 05:08:21;;;;;;;11.18;5.63;;;;;;;17.84;67.22;101009.44;5131238;27;20027;-66
2022/05/09 05:10:52;;;;;;;12.15;5.82;;;;;;;18.00;66.50;101015.75;5131253;27;20023;-65
2022/05/09 05:13:19;;;;;;;9.05;6.28;;;;;;;18.22;65.92;101013.44;5128945;27;20081;-66
2022/05/09 05:15:44;;;;;;;12.05;6.50;;;;;;;18.34;64.39;101010.22;5130975;27;20421;-66
2022/05/09 05:18:11;;;;;;;12.52;6.60;;;;;;;18.50;64.21;101012.97;5129487;27;20042;-65
2022/05/09 05:20:37;;;;;;;14.52;5.68;;;;;;;18.69;63.67;101019.94;5131229;27;20517;-66
2022/05/09 05:23:02;;;;;;;18.33;6.28;;;;;;;18.82;63.07;101021.16;5129712;27;20027;-67
2022/05/09 05:25:30;;;;;;;11.38;5.65;;;;;;;18.87;62.20;101018.78;5130888;27;20079;-67
2022/05/09 05:27:57;;;;;;;9.98;5.35;;;;;;;18.98;62.14;101032.00;5131206;27;20027;-66
2022/05/09 05:30:23;;;;;;;13.88;6.43;;;;;;;19.05;61.87;101029.44;5130313;27;20514;-66
2022/05/09 05:32:49;;;;;;;15.63;6.47;;;;;;;19.00;61.81;101010.94;5129856;27;20046;-66
2022/05/09 05:35:18;;;;;;;14.93;6.35;;;;;;;19.15;61.27;101030.13;5128210;27;20080;-66
2022/05/09 05:37:44;;;;;;;13.93;6.20;;;;;;;19.22;61.46;101031.13;5130823;27;20038;-66
2022/05/09 05:40:10;;;;;;;14.10;6.47;;;;;;;19.30;60.71;101036.59;5129487;28;20050;-68
2022/05/09 05:42:40;;;;;;;17.30;6.97;;;;;;;19.31;60.44;101025.53;5129560;27;20038;-67
2022/05/09 05:45:08;;;;;;;9.88;6.32;;;;;;;19.47;60.49;101032.78;5131038;27;20109;-67
2022/05/09 05:47:33;;;;;;;13.50;6.25;;;;;;;19.54;59.70;101034.66;5130765;27;20027;-66
2022/05/09 05:49:59;;;;;;;14.07;5.90;;;;;;;19.60;58.92;101035.81;5129490;28;20518;-66
2022/05/09 05:52:24;;;;;;;12.45;6.25;;;;;;;19.66;58.62;101046.00;5134230;27;20031;-66
2022/05/09 05:54:50;;;;;;;13.30;6.57;;;;;;;19.76;58.82;101047.50;5135052;27;20034;-67
2022/05/09 05:57:17;;;;;;;14.50;6.22;;;;;;;19.87;58.88;101049.84;5135005;27;20050;-67
2022/05/09 05:59:54;;;;;;;10.32;6.15;;;;;;;19.99;58.43;101050.28;5135058;27;20035;-67
2022/05/09 06:02:19;;;;;;;10.38;6.18;;;;;;;20.11;58.04;101047.03;5135086;27;20128;-66
2022/05/09 06:04:45;;;;;;;13.02;5.90;;;;;;;20.23;57.87;101046.63;5135138;27;20479;-67
2022/05/09 06:07:12;;;;;;;7.60;5.60;;;;;;;20.37;57.35;101049.44;5134655;27;20023;-66
2022/05/09 06:09:41;;;;;;;11.23;5.97;;;;;;;20.50;56.78;101051.59;5134110;27;20471;-66
2022/05/09 06:12:08;;;;;;;10.82;6.15;;;;;;;20.61;55.98;101053.88;5133717;27;20043;-67
2022/05/09 06:14:34;;;;;;;13.93;6.50;;;;;;;20.65;55.61;101047.88;5133721;27;20415;-66
2022/05/09 06:16:59;;;;;;;8.93;6.03;;;;;;;20.78;55.86;101050.00;5133889;27;20066;-66
2022/05/09 06:19:24;;;;;;;9.38;5.57;;;;;;;20.92;55.61;101055.50;5133805;27;20023;-66
2022/05/09 06:21:51;;;;;;;9.10;5.53;;;;;;;21.01;55.38;101062.63;5133626;27;20031;-67
2022/05/09 06:24:17;;;;;;;9.50;5.82;;;;;;;21.09;54.35;101058.97;5133373;27;20383;-68
2022/05/09 06:26:44;;;;;;;8.95;5.50;;;;;;;21.17;54.08;101058.91;5123246;27;20080;-68
2022/05/09 06:29:10;;;;;;;6.97;5.45;;;;;;;21.22;54.01;101048.28;5133152;27;20027;-66
2022/05/09 06:31:37;;;;;;;9.50;5.90;;;;;;;21.40;53.39;101057.81;5133415;27;20015;-67
2022/05/09 06:34:04;;;;;;;5.47;4.78;;;;;;;21.52;53.28;101059.06;5133334;27;20479;-67
2022/05/09 06:36:35;;;;;;;6.05;4.95;;;;;;;21.67;52.99;101061.78;5133009;27;20417;-67
2022/05/09 06:39:02;;;;;;;7.38;5.50;;;;;;;21.79;52.28;101057.56;5133109;27;20046;-66
2022/05/09 06:41:28;;;;;;;7.53;5.50;;;;;;;21.91;51.96;101054.19;5132335;27;20034;-67
2022/05/09 06:43:53;;;;;;;7.05;5.03;;;;;;;22.01;51.27;101064.81;5132896;27;20458;-66
2022/05/09 06:46:19;;;;;;;10.27;5.65;;;;;;;22.06;50.86;101054.16;5132691;27;20030;-66
2022/05/09 06:48:45;;;;;;;9.38;5.28;;;;;;;22.19;50.37;101063.34;5133086;27;20797;-66
2022/05/09 06:51:10;;;;;;;9.52;5.63;;;;;;;22.30;50.30;101070.22;5132603;27;20038;-68
2022/05/09 06:53:36;;;;;;;10.65;5.63;;;;;;;22.37;49.94;101071.16;5132749;27;20510;-67
2022/05/09 06:56:01;;;;;;;7.28;5.32;;;;;;;22.45;50.06;101073.78;5132138;27;20023;-67
2022/05/09 06:58:27;;;;;;;7.22;5.28;;;;;;;22.59;49.90;101069.31;5132549;27;20023;-66
2022/05/09 07:00:53;;;;;;;10.40;5.47;;;;;;;22.65;49.46;101069.41;5132896;27;20039;-66
2022/05/09 07:03:20;;;;;;;12.13;6.22;;;;;;;22.73;49.26;101071.16;5131700;27;20051;-66
2022/05/09 07:05:47;;;;;;;7.82;5.53;;;;;;;22.85;49.17;101080.53;5132473;27;20483;-66
2022/05/09 07:08:13;;;;;;;6.95;4.60;;;;;;;22.89;48.41;101069.00;5132430;27;20035;-66
2022/05/09 07:10:39;;;;;;;8.65;5.15;;;;;;;23.07;48.15;101079.47;5130741;27;20033;-67
2022/05/09 07:13:05;;;;;;;9.80;5.22;;;;;;;23.14;47.49;101080.38;5132511;27;20031;-66
2022/05/09 07:15:32;;;;;;;5.85;4.82;;;;;;;23.26;47.31;101074.22;5133310;27;20046;-66
2022/05/09 07:17:59;;;;;;;7.05;5.35;;;;;;;23.40;47.27;101077.91;5133390;27;20069;-66
2022/05/09 07:20:26;;;;;;;8.75;5.70;;;;;;;23.51;47.25;101080.09;5132889;27;20031;-66
2022/05/09 07:22:57;;;;;;;9.05;5.45;;;;;;;23.58;47.00;101083.72;5131464;27;20043;-67
2022/05/09 07:25:24;;;;;;;11.40;5.13;;;;;;;23.73;47.31;101081.75;5132597;27;20020;-67
2022/05/09 07:27:50;;;;;;;9.25;5.40;;;;;;;23.86;46.89;101077.16;5133064;27;20118;-65
2022/05/09 07:30:19;;;;;;;10.57;4.95;;;;;;;24.00;46.37;101078.97;5133075;27;20042;-67
2022/05/09 07:32:45;;;;;;;9.55;5.30;;;;;;;24.05;46.10;101070.97;5132893;27;20035;-66
2022/05/09 07:35:14;;;;;;;10.68;5.10;;;;;;;24.16;45.89;101086.88;5131319;27;20110;-67
2022/05/09 07:37:44;;;;;;;6.15;5.32;;;;;;;24.25;45.84;101071.06;5132730;27;20041;-67
2022/05/09 07:40:11;;;;;;;8.82;5.72;;;;;;;24.36;45.54;101079.56;5132409;27;20062;-67
2022/05/09 07:42:37;;;;;;;9.43;5.45;;;;;;;24.43;45.46;101077.69;5132950;27;20455;-68
2022/05/09 07:45:05;;;;;;;8.00;4.70;;;;;;;24.52;45.36;101075.59;5131145;27;20027;-66
2022/05/09 07:47:31;;;;;;;6.82;5.13;;;;;;;24.62;44.60;101075.19;5132879;27;20459;-66
2022/05/09 07:49:56;;;;;;;7.50;4.43;;;;;;;24.69;44.60;101073.38;5132364;27;20506;-66
2022/05/09 07:52:23;;;;;;;6.60;4.75;;;;;;;24.72;44.56;101065.53;5132263;27;20046;-67
2022/05/09 07:54:48;;;;;;;8.65;5.20;;;;;;;24.83;45.26;101070.44;5130352;27;20163;-67
2022/05/09 07:57:15;;;;;;;8.30;4.70;;;;;;;24.88;44.82;101072.53;5132381;27;20036;-67
2022/05/09 07:59:40;;;;;;;8.73;4.93;;;;;;;24.97;44.74;101068.53;5132573;27;20023;-67
2022/05/09 08:02:06;;;;;;;7.43;4.72;;;;;;;25.07;44.03;101075.31;5132110;27;20053;-67
2022/05/09 08:04:32;;;;;;;6.88;4.70;;;;;;;25.13;44.42;101081.84;5132152;27;20052;-66
2022/05/09 08:06:58;;;;;;;7.97;4.75;;;;;;;25.14;44.32;101065.16;5130835;27;20027;-66
2022/05/09 08:09:23;;;;;;;9.38;4.82;;;;;;;25.19;43.16;101075.53;5131590;27;20051;-68
2022/05/09 08:11:49;;;;;;;12.32;6.03;;;;;;;25.18;43.08;101076.59;5130898;27;20023;-67
2022/05/09 08:14:14;;;;;;;8.98;4.93;;;;;;;25.17;43.51;101059.25;5129955;27;20041;-67
2022/05/09 08:16:40;;;;;;;15.88;5.53;;;;;;;25.22;43.40;101077.84;5131965;27;20170;-67
2022/05/09 08:19:05;;;;;;;8.60;5.07;;;;;;;25.16;43.14;101074.06;5131879;27;20043;-67
2022/05/09 08:21:31;;;;;;;8.20;5.18;;;;;;;25.21;43.01;101084.41;5131678;27;20105;-67
2022/05/09 08:23:58;;;;;;;6.25;4.40;;;;;;;25.27;43.11;101086.28;5132322;27;20027;-67
2022/05/09 08:26:23;;;;;;;8.55;4.70;;;;;;;25.34;43.12;101078.94;5131979;27;20027;-68
2022/05/09 08:28:50;;;;;;;8.15;5.13;;;;;;;25.46;42.89;101078.06;5132009;27;20065;-67
2022/05/09 08:31:18;;;;;;;6.88;5.25;;;;;;;25.54;42.21;101082.53;5131646;27;20455;-66
2022/05/09 08:33:46;;;;;;;5.90;5.03;;;;;;;25.52;41.32;101079.97;5131642;27;20146;-67
2022/05/09 08:36:12;;;;;;;9.27;4.78;;;;;;;25.53;42.39;101078.06;5128771;27;20019;-68
2022/05/09 08:38:58;;;;;;;6.60;5.22;;;;;;;25.61;42.97;101080.59;5131629;27;20035;-68
2022/05/09 08:41:23;;;;;;;7.47;4.70;;;;;;;25.71;42.67;101084.59;5131591;27;20478;-67
2022/05/09 08:44:19;;;;;;;9.30;4.43;;;;;;;25.81;42.51;101081.41;5131632;27;20038;-67
2022/05/09 08:46:52;;;;;;;7.57;4.68;;;;;;;25.87;42.48;101080.53;5131613;27;20035;-68
2022/05/09 08:49:18;;;;;;;8.27;5.00;;;;;;;25.88;42.70;101083.09;5130056;27;20031;-66
2022/05/09 08:52:21;;;;;;;7.07;5.10;;;;;;;25.87;41.85;101075.91;5131432;27;20382;-67
2022/05/09 08:54:46;;;;;;;6.40;4.47;;;;;;;25.84;42.30;101073.59;5131046;27;20493;-71
2022/05/09 08:57:23;;;;;;;8.77;4.25;;;;;;;25.88;42.11;101077.59;5132766;27;20027;-70
2022/05/09 09:00:06;;;;;;;6.38;4.57;;;;;;;25.94;41.47;101084.97;5131735;27;20491;-72
2022/05/09 09:02:44;;;;;;;6.43;4.33;;;;;;;25.98;41.62;101075.25;5128200;27;20026;-71
2022/05/09 09:05:23;;;;;;;8.07;4.97;;;;;;;25.98;41.43;101072.50;5131501;27;20558;-72
2022/05/09 09:07:59;;;;;;;8.35;4.97;;;;;;;25.98;41.12;101083.50;5133192;27;20038;-72
2022/05/09 09:10:36;;;;;;;4.70;4.28;;;;;;;25.96;40.64;101080.09;5131064;27;20177;-71
2022/05/09 09:13:13;;;;;;;5.50;4.60;;;;;;;25.98;41.15;101077.16;5131686;27;20364;-71
2022/05/09 09:16:08;;;;;;;5.85;4.20;;;;;;;26.04;41.40;101077.16;5132952;27;20023;-71
2022/05/09 09:18:55;;;;;;;7.15;4.78;;;;;;;26.12;41.26;101079.66;5130557;27;20038;-71
2022/05/09 09:21:32;;;;;;;5.32;3.90;;;;;;;26.18;41.24;101086.22;5122160;27;20075;-71
2022/05/09 09:24:09;;;;;;;7.70;4.10;;;;;;;26.27;40.31;101079.38;5130856;27;20062;-71
2022/05/09 09:27:18;;;;;;;6.03;4.57;;;;;;;26.18;41.11;101077.94;5132404;27;20088;-71
2022/05/09 09:29:49;;;;;;;13.18;4.50;;;;;;;26.21;41.16;101083.84;5130953;27;20039;-71
2022/05/09 09:32:20;;;;;;;7.70;4.50;;;;;;;26.16;39.77;101089.16;5132171;27;20073;-70
2022/05/09 09:35:08;;;;;;;5.47;3.85;;;;;;;26.20;39.60;101081.31;5131284;27;20077;-71
2022/05/09 09:37:43;;;;;;;4.65;4.15;;;;;;;26.23;39.67;101081.72;5124304;27;20034;-72
2022/05/09 09:40:09;;;;;;;5.88;4.25;;;;;;;26.22;39.61;101076.44;5132614;27;20745;-71
2022/05/09 09:42:35;;;;;;;5.18;3.80;;;;;;;26.25;39.76;101073.25;5132270;27;20027;-71
2022/05/09 09:45:19;;;;;;;6.35;4.45;;;;;;;26.30;40.30;101074.28;5133125;27;20049;-70
2022/05/09 09:47:45;;;;;;;7.30;4.45;;;;;;;26.34;40.83;101083.78;5129901;28;20400;-71
2022/05/09 09:50:24;;;;;;;11.35;4.55;;;;;;;26.38;40.75;101084.22;5132481;27;20039;-71
2022/05/09 09:52:56;;;;;;;4.85;4.20;;;;;;;26.38;40.25;101076.78;5129663;28;20442;-71
2022/05/09 09:55:29;;;;;;;9.35;4.40;;;;;;;26.43;39.68;101076.97;5132170;27;20118;-70
2022/05/09 09:57:57;;;;;;;5.75;4.50;;;;;;;26.40;39.43;101076.56;5130516;27;20031;-71
2022/05/09 10:00:34;;;;;;;5.05;4.40;;;;;;;26.46;39.49;101083.94;5132117;27;20500;-71
2022/05/09 10:03:27;;;;;;;9.52;4.63;;;;;;;26.39;39.04;101084.00;5132297;27;20026;-71
2022/05/09 10:05:54;;;;;;;6.55;4.63;;;;;;;26.39;38.48;101085.88;5131091;28;20057;-71
2022/05/09 10:08:33;;;;;;;7.28;4.07;;;;;;;26.39;38.69;101067.47;5131799;27;20023;-72
2022/05/09 10:11:06;;;;;;;11.43;4.47;;;;;;;26.43;38.95;101059.63;5129141;28;20058;-71
2022/05/09 10:13:35;;;;;;;6.72;4.32;;;;;;;26.51;38.86;101057.44;5130724;28;20031;-70
2022/05/09 10:16:04;;;;;;;9.02;4.28;;;;;;;26.47;39.08;101063.59;5129512;28;20023;-72
2022/05/09 10:18:33;;;;;;;5.45;4.63;;;;;;;26.49;39.69;101056.00;5128240;28;20463;-71
2022/05/09 10:21:10;;;;;;;10.73;5.10;;;;;;;26.46;39.68;101051.78;5130323;27;20161;-71
2022/05/09 10:26:31;;;;;;;4.95;4.40;;;;;;;26.56;38.88;101043.03;5130654;28;20673;-72
2022/05/09 10:29:01;;;;;;;4.55;4.15;;;;;;;26.63;39.12;101046.63;5131931;27;20031;-71
2022/05/09 10:31:47;;;;;;;4.75;4.30;;;;;;;26.67;37.73;101047.03;5129029;28;20535;-66
2022/05/09 10:34:26;;;;;;;6.05;4.28;;;;;;;26.65;37.71;101030.72;5128973;27;20356;-68
2022/05/09 10:37:02;;;;;;;6.78;4.43;;;;;;;26.68;37.61;101027.53;5129871;27;20019;-67
2022/05/09 10:39:31;;;;;;;4.60;4.20;;;;;;;26.67;37.46;101025.88;5131816;27;20030;-65
2022/05/09 10:42:00;;;;;;;4.72;4.25;;;;;;;26.69;37.74;101022.88;5134024;27;20023;-66
2022/05/09 10:44:49;;;;;;;6.28;4.05;;;;;;;26.65;37.53;101025.22;5132583;27;20031;-67
2022/05/09 10:47:25;;;;;;;6.10;4.22;;;;;;;26.63;37.74;101021.84;5132375;27;20069;-67
2022/05/09 10:50:02;;;;;;;6.25;4.22;;;;;;;26.58;37.30;101012.53;5133795;27;20046;-66
2022/05/09 10:52:27;;;;;;;6.80;4.20;;;;;;;26.49;37.37;101014.72;5131736;27;20473;-67
2022/05/09 10:54:53;;;;;;;7.20;4.22;;;;;;;26.42;37.50;101005.66;5134668;27;20027;-70
2022/05/09 10:57:44;;;;;;;6.82;4.13;;;;;;;26.33;37.16;101012.47;5134843;27;20065;-66
2022/05/09 11:00:18;;;;;;;6.05;4.28;;;;;;;26.26;37.66;101006.19;5133720;27;20058;-66
2022/05/09 11:02:58;;;;;;;7.00;4.82;;;;;;;26.10;37.66;100998.44;5132325;27;20023;-67
2022/05/09 11:05:28;;;;;;;5.70;4.68;;;;;;;26.10;37.83;101007.53;5131526;27;20034;-67
2022/05/09 11:08:07;;;;;;;8.00;4.57;;;;;;;26.02;37.77;100984.94;5133396;27;20095;-67
2022/05/09 11:10:41;;;;;;;5.63;4.63;;;;;;;26.07;37.99;100998.88;5131861;27;20440;-67
2022/05/09 11:13:16;;;;;;;4.57;3.58;;;;;;;26.10;37.49;100996.53;5133400;27;20027;-67
2022/05/09 11:16:00;;;;;;;5.68;4.30;;;;;;;26.09;36.81;100991.25;5131713;27;20054;-67
2022/05/09 11:18:44;;;;;;;6.28;4.43;;;;;;;26.12;36.82;100990.81;5133186;27;20030;-66
2022/05/09 11:21:47;;;;;;;4.78;4.00;;;;;;;26.17;36.85;100980.84;5133054;27;20027;-66
2022/05/09 11:24:24;;;;;;;4.05;3.65;;;;;;;26.30;37.01;100985.41;5132908;27;20110;-72
2022/05/09 11:27:08;;;;;;;4.70;4.25;;;;;;;26.36;36.85;100995.53;5134543;27;20058;-71
2022/05/09 11:29:51;;;;;;;7.20;4.83;;;;;;;26.33;38.46;100987.72;5134395;27;20027;-71
2022/05/09 11:32:36;;;;;;;16.80;5.53;;;;;;;26.32;38.78;100989.66;5131685;27;20331;-71
2022/05/09 11:35:27;;;;;;;7.68;4.13;;;;;;;26.23;38.62;100984.59;5132579;27;20030;-70
2022/05/09 11:37:52;;;;;;;6.97;2.80;;;;;;;26.14;35.71;100988.66;5133982;27;20083;-71
2022/05/09 11:40:55;;;;;;;7.03;2.17;;;;;;;26.08;35.30;100986.78;5134456;27;20027;-71
2022/05/09 11:43:37;;;;;;;8.82;3.50;;;;;;;26.01;37.08;100994.22;5133246;27;20019;-71
2022/05/09 11:46:21;;;;;;;7.50;4.10;;;;;;;25.88;38.26;101003.34;5128387;27;20024;-72
2022/05/09 11:49:13;;;;;;;10.10;3.85;;;;;;;25.76;39.10;101004.25;5134110;27;20076;-72